Time;durP1;ratioP1;P1;durP2;ratioP2;P2;SDS_P1;SDS_P2;PMS_P1;PMS_P2;Temp;Humidity;BMP_temperature;BMP_pressure;BME280_temperature;BME280_humidity;BME280_pressure;Samples;Min_cycle;Max_cycle;Signal;HPM_P1;HPM_P2
2021/01/02 00:02:07;;;;;;;27.80;19.92;;;5.70;84.50;;;;;;5072925;28;20033;-52
2021/01/02 00:05:05;;;;;;;26.10;17.48;;;5.80;84.60;;;;;;5065353;28;20036;-53
2021/01/02 00:07:56;;;;;;;25.67;18.50;;;5.80;83.70;;;;;;5072782;28;20473;-53
2021/01/02 00:10:23;;;;;;;27.92;19.95;;;5.70;84.60;;;;;;5072976;28;20064;-52
2021/01/02 00:13:10;;;;;;;28.20;19.00;;;5.60;84.80;;;;;;5072825;28;20052;-54
2021/01/02 00:15:45;;;;;;;30.55;19.75;;;5.90;83.80;;;;;;5072641;28;20028;-52
2021/01/02 00:18:32;;;;;;;27.77;18.98;;;5.60;84.10;;;;;;5073335;28;20435;-52
2021/01/02 00:21:09;;;;;;;28.52;20.33;;;5.60;84.00;;;;;;5073446;28;20131;-52
2021/01/02 00:24:12;;;;;;;27.30;19.08;;;5.70;84.60;;;;;;5076676;28;20036;-53
2021/01/02 00:26:44;;;;;;;28.77;18.33;;;5.90;82.70;;;;;;5057843;28;20037;-54
2021/01/02 00:29:23;;;;;;;28.20;17.92;;;5.90;82.40;;;;;;5076801;28;20043;-52
2021/01/02 00:32:22;;;;;;;23.25;17.45;;;5.50;83.60;;;;;;5076581;28;20032;-52
2021/01/02 00:34:50;;;;;;;24.98;16.33;;;5.60;83.90;;;;;;5076244;28;20498;-52
2021/01/02 00:37:20;;;;;;;22.95;15.77;;;5.70;83.40;;;;;;5076125;28;20040;-53
2021/01/02 00:39:57;;;;;;;26.10;17.33;;;5.70;83.40;;;;;;5076244;28;20039;-53
2021/01/02 00:42:25;;;;;;;29.67;20.30;;;5.40;84.00;;;;;;5075312;28;20052;-52
2021/01/02 00:44:52;;;;;;;36.17;24.67;;;5.30;85.30;;;;;;5076002;28;20432;-52
2021/01/02 00:47:18;;;;;;;32.25;20.83;;;5.20;85.30;;;;;;5076174;28;20025;-53
2021/01/02 00:49:48;;;;;;;33.17;23.25;;;5.10;86.00;;;;;;5075986;28;20032;-53
2021/01/02 00:52:40;;;;;;;30.50;19.90;;;5.10;86.10;;;;;;5075930;28;20032;-53
2021/01/02 00:55:39;;;;;;;30.05;17.05;;;5.30;85.40;;;;;;5075861;28;20025;-53
2021/01/02 00:58:12;;;;;;;27.05;17.73;;;5.40;85.30;;;;;;5075940;28;20047;-53
2021/01/02 01:00:40;;;;;;;30.42;19.83;;;5.50;84.30;;;;;;5075775;28;20032;-53
2021/01/02 01:03:27;;;;;;;26.52;18.00;;;5.40;84.60;;;;;;5075714;28;20033;-53
2021/01/02 01:05:55;;;;;;;23.08;16.38;;;4.90;86.70;;;;;;5075624;28;20107;-53
2021/01/02 01:08:23;;;;;;;28.35;18.17;;;4.70;87.80;;;;;;5075933;28;20029;-53
2021/01/02 01:10:50;;;;;;;31.75;22.40;;;4.60;90.10;;;;;;5075243;28;20028;-53
2021/01/02 01:13:23;;;;;;;30.00;20.23;;;4.60;89.20;;;;;;5075317;28;20034;-53
2021/01/02 01:15:50;;;;;;;29.63;19.98;;;4.60;89.30;;;;;;5075207;28;20124;-54
2021/01/02 01:18:42;;;;;;;27.95;17.25;;;4.70;89.00;;;;;;5075376;28;20024;-54
2021/01/02 01:21:11;;;;;;;24.60;16.60;;;4.80;88.20;;;;;;5075543;28;20067;-53
2021/01/02 01:23:48;;;;;;;24.35;16.73;;;4.90;87.60;;;;;;5057231;28;20044;-54
2021/01/02 01:26:25;;;;;;;23.98;15.98;;;4.90;87.00;;;;;;5075963;28;20040;-54
2021/01/02 01:28:56;;;;;;;22.77;16.13;;;4.80;87.60;;;;;;5057358;28;20045;-53
2021/01/02 01:31:22;;;;;;;23.05;15.13;;;4.90;87.50;;;;;;5075382;28;20032;-53
2021/01/02 01:33:50;;;;;;;22.27;16.05;;;4.80;87.20;;;;;;5075717;28;20032;-53
2021/01/02 01:36:21;;;;;;;22.27;15.23;;;4.80;88.00;;;;;;5075198;28;20387;-53
2021/01/02 01:38:55;;;;;;;29.55;16.83;;;4.90;87.30;;;;;;5075057;28;20391;-53
2021/01/02 01:41:36;;;;;;;32.50;21.02;;;4.70;87.40;;;;;;5075505;28;20075;-53
2021/01/02 01:44:10;;;;;;;27.42;15.90;;;4.70;87.70;;;;;;5075388;28;20037;-53
2021/01/02 01:46:48;;;;;;;23.55;14.52;;;4.70;87.80;;;;;;5056399;28;20040;-53
2021/01/02 01:49:29;;;;;;;26.02;15.75;;;4.50;88.20;;;;;;5073082;28;20037;-53
2021/01/02 01:52:01;;;;;;;24.75;16.35;;;4.50;88.80;;;;;;5075137;28;20029;-53
2021/01/02 01:54:37;;;;;;;24.60;15.10;;;4.50;88.80;;;;;;5074868;28;20040;-53
2021/01/02 01:57:06;;;;;;;22.35;15.35;;;4.30;89.20;;;;;;5074533;28;20044;-53
2021/01/02 01:59:59;;;;;;;23.83;15.02;;;4.40;88.90;;;;;;5074913;28;20036;-53
2021/01/02 02:02:33;;;;;;;;;;;4.40;88.10;;;;;;5075169;28;20031;-53
2021/01/02 02:05:07;;;;;;;23.63;13.52;;;4.30;89.90;;;;;;5074715;28;20002;-54
2021/01/02 02:08:02;;;;;;;23.63;14.63;;;4.20;89.70;;;;;;5039687;28;20537;-53
2021/01/02 02:10:33;;;;;;;26.13;16.52;;;4.30;89.20;;;;;;5074961;28;20081;-53
2021/01/02 02:13:05;;;;;;;22.02;14.23;;;4.50;88.60;;;;;;5074199;28;20028;-54
2021/01/02 02:15:31;;;;;;;20.38;13.73;;;4.50;88.10;;;;;;5074798;28;20056;-53
2021/01/02 02:18:06;;;;;;;20.88;12.60;;;4.50;88.40;;;;;;5074306;28;20075;-53
2021/01/02 02:20:34;;;;;;;21.23;13.65;;;4.50;88.30;;;;;;5074222;28;20048;-53
2021/01/02 02:23:07;;;;;;;21.65;13.88;;;4.30;88.80;;;;;;5074383;28;20037;-53
2021/01/02 02:25:45;;;;;;;23.40;14.10;;;4.20;89.30;;;;;;5032298;28;20087;-53
2021/01/02 02:28:32;;;;;;;23.48;14.70;;;4.00;90.00;;;;;;4983110;28;20076;-53
2021/01/02 02:31:07;;;;;;;19.23;11.77;;;4.10;90.00;;;;;;5032116;28;20026;-53
2021/01/02 02:33:35;;;;;;;21.42;12.13;;;4.30;89.10;;;;;;5032254;28;20042;-53
2021/01/02 02:36:04;;;;;;;18.20;11.20;;;4.50;88.00;;;;;;5032003;28;20449;-53
2021/01/02 02:38:35;;;;;;;16.38;11.05;;;4.60;90.50;;;;;;5031927;28;20169;-53
2021/01/02 02:41:03;;;;;;;17.45;10.85;;;4.50;90.40;;;;;;5032169;28;20129;-53
2021/01/02 02:43:30;;;;;;;19.33;11.35;;;4.50;89.40;;;;;;5031079;28;20038;-53
2021/01/02 02:45:58;;;;;;;15.35;10.20;;;4.20;89.10;;;;;;5031997;28;20044;-53
2021/01/02 02:48:25;;;;;;;16.13;10.20;;;4.30;88.90;;;;;;5031978;28;20065;-53
2021/01/02 02:50:53;;;;;;;16.25;9.98;;;4.40;88.30;;;;;;5031777;28;20042;-53
2021/01/02 02:53:20;;;;;;;14.80;7.95;;;4.30;88.50;;;;;;5031460;28;20075;-54
2021/01/02 02:55:46;;;;;;;14.25;8.23;;;4.30;89.30;;;;;;5038619;28;20063;-53
2021/01/02 02:58:13;;;;;;;11.82;7.93;;;4.30;90.00;;;;;;5011861;28;20038;-53
2021/01/02 03:00:39;;;;;;;11.35;7.30;;;4.40;89.00;;;;;;5012135;28;20040;-53
2021/01/02 03:03:10;;;;;;;10.48;7.18;;;4.50;88.40;;;;;;5011858;28;20715;-53
2021/01/02 03:05:38;;;;;;;13.25;9.10;;;4.60;88.10;;;;;;5012187;28;20116;-53
2021/01/02 03:08:06;;;;;;;12.90;8.52;;;4.80;91.00;;;;;;5011597;28;20046;-53
2021/01/02 03:10:33;;;;;;;12.10;7.15;;;4.60;87.70;;;;;;4992095;28;20450;-53
2021/01/02 03:12:58;;;;;;;12.73;8.38;;;4.60;88.20;;;;;;4992246;28;20383;-53
2021/01/02 03:15:26;;;;;;;10.70;5.68;;;4.50;88.60;;;;;;4992171;28;20058;-53
2021/01/02 03:17:53;;;;;;;12.07;8.43;;;4.20;89.70;;;;;;4992171;28;20105;-53
2021/01/02 03:20:19;;;;;;;11.93;7.03;;;4.20;90.20;;;;;;4991859;28;20042;-53
2021/01/02 03:22:48;;;;;;;10.88;6.95;;;4.10;90.30;;;;;;4975533;28;20564;-52
2021/01/02 03:25:15;;;;;;;8.60;6.22;;;4.10;90.40;;;;;;4992009;28;20045;-53
2021/01/02 03:27:41;;;;;;;12.70;7.80;;;4.00;90.50;;;;;;4992040;28;20041;-53
2021/01/02 03:30:13;;;;;;;14.43;8.05;;;4.00;90.70;;;;;;5045142;28;20063;-53
2021/01/02 03:32:39;;;;;;;12.43;7.50;;;4.00;90.70;;;;;;5001596;28;20039;-53
2021/01/02 03:35:07;;;;;;;10.25;7.13;;;4.00;90.70;;;;;;5051360;28;20083;-53
2021/01/02 03:37:34;;;;;;;11.38;7.28;;;4.10;90.50;;;;;;5001451;28;20501;-53
2021/01/02 03:40:00;;;;;;;12.02;7.45;;;4.20;90.20;;;;;;5051348;28;20037;-53
2021/01/02 03:42:26;;;;;;;11.13;7.55;;;4.10;90.30;;;;;;4971602;28;20043;-53
2021/01/02 03:44:51;;;;;;;14.43;8.35;;;4.00;90.50;;;;;;5093541;28;20020;-53
2021/01/02 03:47:17;;;;;;;14.75;8.77;;;4.10;90.60;;;;;;5093343;28;20410;-53
2021/01/02 03:49:43;;;;;;;13.65;10.13;;;4.20;90.30;;;;;;5093160;28;20020;-53
2021/01/02 03:52:09;;;;;;;17.23;10.48;;;4.40;90.00;;;;;;5093668;28;20060;-53
2021/01/02 03:54:35;;;;;;;16.80;9.73;;;4.50;88.60;;;;;;5093808;28;20464;-53
2021/01/02 03:57:01;;;;;;;14.70;8.52;;;4.40;89.10;;;;;;5078556;28;20068;-53
2021/01/02 03:59:27;;;;;;;11.85;7.80;;;4.30;89.40;;;;;;5078496;28;20043;-53
2021/01/02 04:01:54;;;;;;;10.52;6.93;;;4.40;88.30;;;;;;5045458;28;20036;-53
2021/01/02 04:04:21;;;;;;;11.38;6.65;;;4.60;87.80;;;;;;5097645;28;20367;-53
2021/01/02 04:06:47;;;;;;;9.88;6.35;;;4.60;87.50;;;;;;5061824;28;20028;-53
2021/01/02 04:09:13;;;;;;;12.60;7.30;;;4.60;87.60;;;;;;5097273;28;20031;-53
2021/01/02 04:11:43;;;;;;;9.82;6.32;;;4.60;87.60;;;;;;5096951;28;20028;-53
2021/01/02 04:14:10;;;;;;;9.80;6.78;;;4.40;88.50;;;;;;5061485;28;20032;-53
2021/01/02 04:16:36;;;;;;;11.80;7.38;;;4.40;88.80;;;;;;5096649;28;20522;-53
2021/01/02 04:19:02;;;;;;;11.10;5.97;;;4.20;89.50;;;;;;5097265;28;20464;-53
2021/01/02 04:21:28;;;;;;;12.23;7.30;;;4.30;89.00;;;;;;5080050;28;20059;-53
2021/01/02 04:23:54;;;;;;;9.60;5.97;;;4.10;89.90;;;;;;5058269;28;20029;-53
2021/01/02 04:26:23;;;;;;;11.25;6.20;;;4.20;89.40;;;;;;5076516;28;20020;-54
2021/01/02 04:28:50;;;;;;;10.98;6.90;;;4.30;88.50;;;;;;5076624;28;20047;-53
2021/01/02 04:31:17;;;;;;;9.68;6.25;;;4.40;88.10;;;;;;5076706;28;20064;-53
2021/01/02 04:33:43;;;;;;;8.75;5.68;;;4.30;88.30;;;;;;5075796;28;20542;-53
2021/01/02 04:36:12;;;;;;;9.75;6.18;;;4.30;88.10;;;;;;5076088;28;20029;-53
2021/01/02 04:38:38;;;;;;;8.57;5.20;;;4.30;88.10;;;;;;5076370;28;20052;-53
2021/01/02 04:41:04;;;;;;;7.85;5.38;;;4.20;88.00;;;;;;5076202;28;20056;-53
2021/01/02 04:43:30;;;;;;;7.88;4.65;;;4.30;87.50;;;;;;5076503;28;20029;-53
2021/01/02 04:45:57;;;;;;;7.65;4.82;;;4.30;87.70;;;;;;5076032;28;20032;-53
2021/01/02 04:48:23;;;;;;;7.55;4.78;;;4.40;87.30;;;;;;5076335;28;20453;-53
2021/01/02 04:50:49;;;;;;;7.20;4.70;;;4.40;86.80;;;;;;5075909;28;20112;-53
2021/01/02 04:53:16;;;;;;;7.35;4.55;;;4.40;87.10;;;;;;5075904;28;20112;-53
2021/01/02 04:55:45;;;;;;;7.00;4.47;;;4.30;87.40;;;;;;5075835;28;20027;-53
2021/01/02 04:58:18;;;;;;;6.72;4.57;;;4.20;88.20;;;;;;5074146;28;20081;-53
2021/01/02 05:00:45;;;;;;;;;;;4.10;88.60;;;;;;5076152;28;20029;-53
2021/01/02 05:03:10;;;;;;;7.07;3.33;;;4.20;87.80;;;;;;5075790;28;19911;-53
2021/01/02 05:05:36;;;;;;;6.97;4.88;;;4.30;87.40;;;;;;5075757;28;20033;-53
2021/01/02 05:08:03;;;;;;;7.47;4.95;;;4.40;87.30;;;;;;5056663;28;20093;-53
2021/01/02 05:10:29;;;;;;;7.05;3.92;;;4.40;86.90;;;;;;5023995;28;20442;-53
2021/01/02 05:13:15;;;;;;;8.43;4.60;;;4.30;87.20;;;;;;5075469;28;20036;-53
2021/01/02 05:15:41;;;;;;;3.25;2.00;;;4.30;87.50;;;;;;5075538;28;20033;-53
2021/01/02 05:18:07;;;;;;;7.88;3.22;;;4.20;87.70;;;;;;5075819;28;20031;-53
2021/01/02 05:20:33;;;;;;;5.30;3.28;;;4.20;87.70;;;;;;5075475;28;20125;-53
2021/01/02 05:23:09;;;;;;;6.32;4.20;;;4.40;86.60;;;;;;5056786;28;20426;-53
2021/01/02 05:25:36;;;;;;;4.18;2.83;;;4.60;85.80;;;;;;5075653;28;20026;-53
2021/01/02 05:28:02;;;;;;;7.60;3.92;;;4.50;86.10;;;;;;5075356;28;20528;-53
2021/01/02 05:30:32;;;;;;;7.32;4.05;;;4.40;86.60;;;;;;5075575;28;20025;-53
2021/01/02 05:33:12;;;;;;;6.22;4.30;;;4.40;86.70;;;;;;5075396;28;20078;-53
2021/01/02 05:35:48;;;;;;;4.95;2.80;;;4.40;86.90;;;;;;5075423;28;20526;-53
2021/01/02 05:38:19;;;;;;;8.10;3.78;;;4.20;87.80;;;;;;5075347;28;20032;-53
2021/01/02 05:40:56;;;;;;;6.13;3.40;;;4.20;87.80;;;;;;5074635;28;20021;-53
2021/01/02 05:43:27;;;;;;;7.13;3.25;;;4.10;88.50;;;;;;5075229;28;20717;-53
2021/01/02 05:45:53;;;;;;;6.82;3.10;;;4.00;88.70;;;;;;5075372;28;20017;-53
2021/01/02 05:48:22;;;;;;;3.67;2.35;;;4.10;88.40;;;;;;5074993;28;20051;-53
2021/01/02 05:50:59;;;;;;;8.13;4.45;;;4.20;87.30;;;;;;5075064;28;20112;-53
2021/01/02 05:53:30;;;;;;;10.30;4.35;;;4.30;86.90;;;;;;5073201;28;20043;-53
2021/01/02 05:56:12;;;;;;;9.90;5.47;;;4.30;87.40;;;;;;5074775;28;20036;-53
2021/01/02 05:58:39;;;;;;;11.13;6.40;;;4.50;88.30;;;;;;5074859;28;20104;-53
2021/01/02 06:01:18;;;;;;;12.80;7.40;;;4.50;87.60;;;;;;5074904;28;20114;-53
2021/01/02 06:03:46;;;;;;;12.88;6.95;;;4.70;89.90;;;;;;5074526;28;20033;-53
2021/01/02 06:06:19;;;;;;;10.82;6.50;;;4.90;87.70;;;;;;5074894;28;20024;-53
2021/01/02 06:08:49;;;;;;;13.20;8.80;;;4.90;85.40;;;;;;5086851;28;20490;-53
2021/01/02 06:11:22;;;;;;;18.38;10.50;;;4.90;85.20;;;;;;5094086;28;20028;-53
2021/01/02 06:13:52;;;;;;;13.60;11.07;;;4.60;85.40;;;;;;5094651;28;20066;-53
2021/01/02 06:16:19;;;;;;;15.65;10.68;;;4.50;86.20;;;;;;5094398;28;20364;-53
2021/01/02 06:18:47;;;;;;;15.10;9.27;;;4.40;86.90;;;;;;5094800;28;20380;-53
2021/01/02 06:21:15;;;;;;;12.10;8.63;;;4.60;87.30;;;;;;5075591;28;20077;-53
2021/01/02 06:23:43;;;;;;;12.48;9.82;;;4.70;85.60;;;;;;5090842;28;20085;-53
2021/01/02 06:26:10;;;;;;;11.95;8.35;;;4.80;84.90;;;;;;5094616;28;20553;-53
2021/01/02 06:28:38;;;;;;;11.40;7.32;;;4.80;84.80;;;;;;5094635;28;20032;-53
2021/01/02 06:31:15;;;;;;;11.52;5.75;;;4.80;84.60;;;;;;5094536;28;20032;-53
2021/01/02 06:33:49;;;;;;;10.35;6.72;;;4.80;84.80;;;;;;5095120;28;20031;-53
2021/01/02 06:36:35;;;;;;;9.82;6.68;;;4.80;84.90;;;;;;5094176;28;20138;-53
2021/01/02 06:39:24;;;;;;;17.88;10.52;;;4.90;84.40;;;;;;5094728;28;20028;-53
2021/01/02 06:41:52;;;;;;;14.98;8.55;;;4.90;84.10;;;;;;5094521;28;20047;-54
2021/01/02 06:44:37;;;;;;;12.82;9.88;;;5.00;84.00;;;;;;5094889;28;20035;-52
2021/01/02 06:47:21;;;;;;;20.65;12.40;;;4.90;84.50;;;;;;5094560;28;20111;-53
2021/01/02 06:49:48;;;;;;;20.67;12.40;;;4.80;85.00;;;;;;5094306;28;20028;-53
2021/01/02 06:52:36;;;;;;;11.77;7.43;;;4.80;85.10;;;;;;5093869;28;20039;-53
2021/01/02 06:55:20;;;;;;;9.50;5.55;;;5.40;83.20;;;;;;5094440;28;20062;-53
2021/01/02 06:57:47;;;;;;;5.25;3.05;;;6.60;79.60;;;;;;5092446;28;20426;-53
2021/01/02 07:00:28;;;;;;;5.68;3.50;;;7.30;86.00;;;;;;5094528;28;20027;-53
2021/01/02 07:02:56;;;;;;;6.63;4.18;;;8.00;71.60;;;;;;5094196;28;20020;-53
2021/01/02 07:05:44;;;;;;;9.02;5.53;;;8.60;69.30;;;;;;5093918;28;20028;-53
2021/01/02 07:08:41;;;;;;;4.25;3.40;;;9.50;66.40;;;;;;5093966;28;20085;-53
2021/01/02 07:11:31;;;;;;;11.32;6.18;;;9.70;64.40;;;;;;5093719;28;20378;-54
2021/01/02 07:14:12;;;;;;;7.72;5.70;;;11.00;61.70;;;;;;5094119;28;20035;-54
2021/01/02 07:16:51;;;;;;;13.43;9.10;;;12.60;63.70;;;;;;5094020;28;20081;-53
2021/01/02 07:19:26;;;;;;;11.65;8.07;;;;;;;;;;5093987;28;20089;-53
2021/01/02 07:22:16;;;;;;;17.05;10.32;;;14.00;59.80;;;;;;5093677;28;20484;-53
2021/01/02 07:24:42;;;;;;;32.72;16.50;;;;;;;;;;5030715;28;20104;-53
2021/01/02 07:27:35;;;;;;;24.77;15.18;;;14.60;48.50;;;;;;5031494;28;20038;-53
2021/01/02 07:30:05;;;;;;;20.08;12.15;;;15.00;48.10;;;;;;5030585;28;20069;-53
2021/01/02 07:32:33;;;;;;;15.00;10.57;;;16.30;45.80;;;;;;5031417;28;20029;-54
2021/01/02 07:35:02;;;;;;;16.02;11.68;;;;;;;;;;5031194;28;20131;-53
2021/01/02 07:37:30;;;;;;;15.35;11.35;;;17.60;55.60;;;;;;5031071;28;20041;-55
2021/01/02 07:40:13;;;;;;;17.25;12.05;;;17.90;42.10;;;;;;5030895;28;20032;-56
2021/01/02 07:42:42;;;;;;;20.10;14.60;;;17.90;41.90;;;;;;5031297;28;20148;-55
2021/01/02 07:45:13;;;;;;;15.27;11.15;;;18.20;40.00;;;;;;5030987;28;20030;-53
2021/01/02 07:47:49;;;;;;;13.60;11.20;;;17.30;41.30;;;;;;5031363;28;20025;-54
2021/01/02 07:50:17;;;;;;;14.00;10.05;;;17.80;42.50;;;;;;5029818;28;20025;-53
2021/01/02 07:52:48;;;;;;;12.00;9.48;;;18.50;39.00;;;;;;5029699;28;20110;-53
2021/01/02 07:55:15;;;;;;;16.03;12.13;;;20.20;38.70;;;;;;5012598;28;20045;-55
2021/01/02 07:57:40;;;;;;;18.38;13.88;;;19.00;38.20;;;;;;5029592;28;20298;-52
2021/01/02 08:00:08;;;;;;;18.50;12.68;;;19.90;36.50;;;;;;5029471;28;20036;-51
2021/01/02 08:02:39;;;;;;;11.32;9.20;;;20.60;36.40;;;;;;5031070;28;20048;-49
2021/01/02 08:05:14;;;;;;;17.30;12.15;;;20.80;36.50;;;;;;5071718;28;20033;-49
2021/01/02 08:07:42;;;;;;;12.68;10.23;;;20.70;35.80;;;;;;5071819;28;20481;-49
2021/01/02 08:10:12;;;;;;;15.27;12.02;;;20.50;36.90;;;;;;5071758;28;20029;-48
2021/01/02 08:12:48;;;;;;;16.98;12.68;;;21.00;37.50;;;;;;5071752;28;20017;-47
2021/01/02 08:15:18;;;;;;;15.77;12.15;;;;;;;;;;5071430;28;20045;-47
2021/01/02 08:17:44;;;;;;;15.27;11.32;;;23.80;46.90;;;;;;5071598;28;20473;-48
2021/01/02 08:20:11;;;;;;;14.75;12.05;;;23.80;33.70;;;;;;5071529;28;20190;-49
2021/01/02 08:22:38;;;;;;;12.60;10.27;;;24.90;31.30;;;;;;5037769;28;20127;-51
2021/01/02 08:25:17;;;;;;;11.07;9.00;;;25.60;31.10;;;;;;5091876;28;20174;-53
2021/01/02 08:27:45;;;;;;;11.75;8.75;;;25.40;30.90;;;;;;5091875;28;20069;-47
2021/01/02 08:30:13;;;;;;;9.85;8.00;;;25.40;30.40;;;;;;5091800;28;20387;-49
2021/01/02 08:32:45;;;;;;;10.77;9.40;;;25.10;30.50;;;;;;5072894;28;20061;-45
2021/01/02 08:35:25;;;;;;;12.32;10.15;;;24.50;30.50;;;;;;5091762;28;20024;-59
2021/01/02 08:37:52;;;;;;;16.55;14.85;;;;;;;;;;5091700;28;20101;-52
2021/01/02 08:40:18;;;;;;;16.85;13.82;;;22.70;31.50;;;;;;5091822;28;20472;-54
2021/01/02 08:42:46;;;;;;;15.63;13.90;;;20.70;35.10;;;;;;5093581;28;20502;-52
2021/01/02 08:45:28;;;;;;;22.08;16.67;;;20.00;36.30;;;;;;5095424;28;20031;-51
2021/01/02 08:48:08;;;;;;;17.58;15.70;;;19.80;45.90;;;;;;5095401;28;20031;-51
2021/01/02 08:50:38;;;;;;;18.17;16.48;;;19.20;44.90;;;;;;5076076;28;20089;-53
2021/01/02 08:53:04;;;;;;;16.98;15.18;;;19.90;39.70;;;;;;5095154;28;20093;-50
2021/01/02 08:55:30;;;;;;;18.63;16.70;;;19.10;38.10;;;;;;5094969;28;20024;-49
2021/01/02 08:57:56;;;;;;;22.00;20.10;;;;;;;;;;5095018;28;20051;-53
2021/01/02 09:00:25;;;;;;;16.60;14.95;;;18.10;39.40;;;;;;5094934;28;20109;-48
2021/01/02 09:03:07;;;;;;;15.40;13.80;;;18.90;41.50;;;;;;5094968;28;20056;-53
2021/01/02 09:05:37;;;;;;;15.17;13.77;;;20.60;38.30;;;;;;5094802;28;20036;-56
2021/01/02 09:08:07;;;;;;;21.15;19.42;;;22.00;42.40;;;;;;5093386;28;20305;-55
2021/01/02 09:10:42;;;;;;;14.38;12.98;;;21.50;35.30;;;;;;5094841;28;20606;-54
2021/01/02 09:13:20;;;;;;;16.50;14.90;;;21.50;42.50;;;;;;5094698;28;20460;-47
2021/01/02 09:15:55;;;;;;;21.13;19.48;;;;;;;;;;5094620;28;20031;-51
2021/01/02 09:18:30;;;;;;;22.35;20.58;;;22.40;33.70;;;;;;5094567;28;20081;-50
2021/01/02 09:20:57;;;;;;;23.63;21.67;;;21.70;35.00;;;;;;5076039;28;20059;-51
2021/01/02 09:23:33;;;;;;;17.02;14.52;;;;;;;;;;5074011;28;20023;-51
2021/01/02 09:25:59;;;;;;;17.63;16.02;;;;;;;;;;5074137;28;20074;-50
2021/01/02 09:28:25;;;;;;;22.33;20.63;;;22.00;37.10;;;;;;5073873;28;20044;-54
2021/01/02 09:30:52;;;;;;;24.98;23.38;;;22.80;41.70;;;;;;5054896;28;20033;-51
2021/01/02 09:33:18;;;;;;;38.70;36.47;;;23.30;33.90;;;;;;5073895;28;20021;-52
2021/01/02 09:35:46;;;;;;;50.92;48.20;;;21.40;40.60;;;;;;5073792;28;20068;-51
2021/01/02 09:38:13;;;;;;;26.88;25.20;;;20.90;36.60;;;;;;5074246;28;20131;-52
2021/01/02 09:40:43;;;;;;;59.08;54.88;;;22.00;36.00;;;;;;5086371;28;20063;-53
2021/01/02 09:43:15;;;;;;;109.80;101.35;;;20.60;37.40;;;;;;5093983;28;20059;-51
2021/01/02 09:45:41;;;;;;;65.75;60.75;;;20.60;38.20;;;;;;5094075;28;20507;-50
2021/01/02 09:48:08;;;;;;;96.25;91.43;;;21.00;37.80;;;;;;5093901;28;20031;-50
2021/01/02 09:50:34;;;;;;;160.85;153.20;;;;;;;;;;5093977;28;20028;-51
2021/01/02 09:53:01;;;;;;;189.85;180.98;;;;;;;;;;5093570;28;20031;-53
2021/01/02 09:55:27;;;;;;;194.25;184.60;;;18.60;41.00;;;;;;5093744;28;20032;-53
2021/01/02 09:57:53;;;;;;;176.23;167.80;;;18.60;42.60;;;;;;5093622;28;20035;-51
2021/01/02 10:00:21;;;;;;;61.00;57.63;;;18.40;42.40;;;;;;5093552;28;20486;-50
2021/01/02 10:02:47;;;;;;;127.53;121.40;;;19.80;40.90;;;;;;5057762;28;20032;-53
2021/01/02 10:05:16;;;;;;;63.85;60.63;;;19.10;41.60;;;;;;5091264;28;20035;-53
2021/01/02 10:07:42;;;;;;;30.02;28.00;;;;;;;;;;5093493;28;20425;-50
2021/01/02 10:10:08;;;;;;;79.90;75.90;;;20.30;58.10;;;;;;5093656;28;20020;-52
2021/01/02 10:12:34;;;;;;;94.80;90.30;;;19.60;58.70;;;;;;5057787;28;20491;-49
2021/01/02 10:14:59;;;;;;;74.90;71.05;;;19.90;40.40;;;;;;5093469;28;20111;-51
2021/01/02 10:17:28;;;;;;;132.00;125.93;;;;;;;;;;5093214;28;20123;-51
2021/01/02 10:19:55;;;;;;;77.88;74.13;;;;;;;;;;5096407;28;20115;-53
2021/01/02 10:22:22;;;;;;;76.88;72.95;;;19.30;40.50;;;;;;5113697;28;20081;-53
2021/01/02 10:24:54;;;;;;;51.63;48.92;;;19.90;40.90;;;;;;5113646;28;20034;-53
2021/01/02 10:27:22;;;;;;;91.25;86.45;;;;;;;;;;5094700;28;20044;-51
2021/01/02 10:29:49;;;;;;;127.68;120.97;;;;;;;;;;5113504;28;20034;-52
2021/01/02 10:32:16;;;;;;;60.80;57.13;;;;;;;;;;5112251;28;20032;-50
2021/01/02 10:34:45;;;;;;;64.05;59.35;;;20.30;66.70;;;;;;5114393;28;20045;-52
2021/01/02 10:37:12;;;;;;;48.90;45.65;;;20.40;62.10;;;;;;5114886;28;20186;-53
2021/01/02 10:39:42;;;;;;;62.13;56.25;;;20.50;57.10;;;;;;5114460;28;20027;-53
2021/01/02 10:42:09;;;;;;;63.75;59.15;;;20.50;57.20;;;;;;5095197;28;20035;-51
2021/01/02 10:44:35;;;;;;;120.85;95.18;;;20.30;57.20;;;;;;5114495;28;20102;-52
2021/01/02 10:47:01;;;;;;;72.10;66.82;;;20.40;58.20;;;;;;5095470;28;20419;-50
2021/01/02 10:49:27;;;;;;;42.22;38.28;;;20.30;58.10;;;;;;5114190;28;20023;-54
2021/01/02 10:51:53;;;;;;;86.55;81.28;;;20.30;57.90;;;;;;5114507;28;20474;-53
2021/01/02 10:54:20;;;;;;;45.70;42.08;;;19.60;60.00;;;;;;5114230;28;20023;-52
2021/01/02 10:56:51;;;;;;;86.72;82.38;;;19.20;41.00;;;;;;5095022;28;20043;-52
2021/01/02 10:59:19;;;;;;;51.65;48.42;;;18.50;41.90;;;;;;5114538;28;20412;-50
2021/01/02 11:01:48;;;;;;;68.18;64.53;;;18.30;42.90;;;;;;5114251;28;20992;-49
2021/01/02 11:04:15;;;;;;;29.33;27.42;;;17.70;45.10;;;;;;5113543;28;20015;-48
2021/01/02 11:06:42;;;;;;;22.75;20.85;;;18.60;44.60;;;;;;5113924;28;20039;-54
2021/01/02 11:09:13;;;;;;;33.28;31.33;;;19.30;44.70;;;;;;5114386;28;20032;-54
2021/01/02 11:11:39;;;;;;;32.08;29.60;;;18.50;43.30;;;;;;5113998;28;20024;-54
2021/01/02 11:14:06;;;;;;;42.40;39.83;;;18.20;43.70;;;;;;5114453;28;20031;-52
2021/01/02 11:16:41;;;;;;;32.03;30.08;;;18.10;44.20;;;;;;5113991;28;20067;-55
2021/01/02 11:19:21;;;;;;;42.05;39.70;;;18.10;45.40;;;;;;5078476;28;20032;-54
2021/01/02 11:21:48;;;;;;;22.45;20.50;;;17.60;44.10;;;;;;5073384;28;20052;-52
2021/01/02 11:24:16;;;;;;;25.00;22.77;;;18.40;44.70;;;;;;5073705;28;20021;-56
2021/01/02 11:26:50;;;;;;;26.27;24.08;;;18.90;43.40;;;;;;5073018;28;20028;-53
2021/01/02 11:29:18;;;;;;;31.13;29.00;;;18.50;43.50;;;;;;5073441;28;20028;-50
2021/01/02 11:31:44;;;;;;;15.43;13.90;;;18.50;42.60;;;;;;5073480;28;20021;-52
2021/01/02 11:34:10;;;;;;;28.13;25.25;;;18.00;44.50;;;;;;5073377;28;20038;-52
2021/01/02 11:36:36;;;;;;;25.63;23.50;;;18.90;43.40;;;;;;5073058;28;20029;-50
2021/01/02 11:39:04;;;;;;;41.67;39.15;;;18.60;42.40;;;;;;5071319;28;20139;-49
2021/01/02 11:41:40;;;;;;;23.48;21.48;;;18.40;43.20;;;;;;5051075;28;20375;-55
2021/01/02 11:44:08;;;;;;;31.30;29.25;;;18.60;43.90;;;;;;5051208;28;20479;-57
2021/01/02 11:46:42;;;;;;;22.92;20.63;;;18.00;44.70;;;;;;5051110;28;20055;-55
2021/01/02 11:49:11;;;;;;;44.00;41.63;;;18.00;45.00;;;;;;5051215;28;20029;-55
2021/01/02 11:51:37;;;;;;;33.17;31.17;;;17.60;54.70;;;;;;5051034;28;20037;-53
2021/01/02 11:54:04;;;;;;;21.23;19.52;;;17.20;45.90;;;;;;5018088;28;20501;-54
2021/01/02 11:56:30;;;;;;;6.88;4.75;;;17.30;46.40;;;;;;5050882;28;20115;-56
2021/01/02 11:59:00;;;;;;;31.67;19.20;;;16.60;46.90;;;;;;5051133;28;20239;-59
2021/01/02 12:01:35;;;;;;;56.25;37.30;;;16.30;47.90;;;;;;5051139;28;20037;-55
2021/01/02 12:04:01;;;;;;;25.23;14.98;;;15.90;49.20;;;;;;5051019;28;20144;-56
2021/01/02 12:06:29;;;;;;;16.25;9.63;;;15.50;49.20;;;;;;5034193;28;20158;-52
2021/01/02 12:08:55;;;;;;;12.00;7.30;;;15.20;50.10;;;;;;5050956;28;20488;-54
2021/01/02 12:11:34;;;;;;;8.90;5.50;;;14.90;50.60;;;;;;5051406;28;20021;-55
2021/01/02 12:14:00;;;;;;;9.35;3.95;;;14.70;52.20;;;;;;5073081;28;20048;-55
2021/01/02 12:16:35;;;;;;;8.90;4.63;;;14.50;50.90;;;;;;5074476;28;20113;-52
2021/01/02 12:19:03;;;;;;;10.20;5.03;;;14.10;52.40;;;;;;5076578;28;20028;-55
2021/01/02 12:21:29;;;;;;;9.68;5.40;;;14.20;53.70;;;;;;5076396;28;20052;-53
2021/01/02 12:23:54;;;;;;;10.75;6.28;;;14.30;53.80;;;;;;5076651;28;20040;-56
2021/01/02 12:26:21;;;;;;;12.98;6.80;;;14.20;54.20;;;;;;5076654;28;20032;-52
2021/01/02 12:28:48;;;;;;;20.90;12.13;;;13.80;54.60;;;;;;5076620;28;20042;-54
2021/01/02 12:31:23;;;;;;;23.55;12.25;;;13.80;55.50;;;;;;5075836;28;20025;-54
2021/01/02 12:33:49;;;;;;;25.13;14.52;;;13.50;55.80;;;;;;5057886;28;20043;-51
2021/01/02 12:36:17;;;;;;;17.88;11.43;;;13.40;56.00;;;;;;5077384;28;20099;-52
2021/01/02 12:38:43;;;;;;;10.80;4.60;;;13.30;56.90;;;;;;5076921;28;20388;-51
2021/01/02 12:41:16;;;;;;;12.00;7.30;;;13.10;57.20;;;;;;5057529;28;20036;-53
2021/01/02 12:43:43;;;;;;;23.33;11.77;;;13.10;56.70;;;;;;5076251;28;20029;-57
2021/01/02 12:46:15;;;;;;;11.48;6.22;;;13.00;58.00;;;;;;5076336;28;20068;-53
2021/01/02 12:48:41;;;;;;;19.85;10.45;;;12.90;57.70;;;;;;5076355;28;20071;-53
2021/01/02 12:51:08;;;;;;;11.07;7.32;;;12.80;58.20;;;;;;5076368;28;20029;-54
2021/01/02 12:53:36;;;;;;;11.80;6.07;;;12.80;57.70;;;;;;5076455;28;20104;-53
2021/01/02 12:56:02;;;;;;;8.95;4.07;;;12.70;58.10;;;;;;5076201;28;20028;-57
2021/01/02 12:58:28;;;;;;;11.05;4.25;;;12.60;57.70;;;;;;5076206;28;20419;-57
2021/01/02 13:00:54;;;;;;;9.40;6.72;;;12.60;57.20;;;;;;5076052;28;20032;-57
2021/01/02 13:03:20;;;;;;;5.82;3.90;;;12.60;58.30;;;;;;5075970;28;20036;-57